createdAt,value
2024-02-06T00:01:11.737Z,9.30
2024-02-06T00:03:40.432Z,9.40
2024-02-06T00:06:09.134Z,9.40
2024-02-06T00:08:39.219Z,9.50
2024-02-06T00:11:09.175Z,9.50
2024-02-06T00:13:39.183Z,9.50
2024-02-06T00:16:13.870Z,9.50
2024-02-06T00:18:43.290Z,9.40
2024-02-06T00:21:11.754Z,9.50
2024-02-06T00:23:40.253Z,9.50
2024-02-06T00:26:08.739Z,9.50
2024-02-06T00:28:39.519Z,9.50
2024-02-06T00:31:08.114Z,9.50
2024-02-06T00:33:36.683Z,9.50
2024-02-06T00:36:05.878Z,9.50
2024-02-06T00:38:34.413Z,9.50
2024-02-06T00:41:05.787Z,9.50
2024-02-06T00:43:34.294Z,9.50
2024-02-06T00:46:04.258Z,9.50
2024-02-06T00:48:33.011Z,9.50
2024-02-06T00:51:01.944Z,9.50
2024-02-06T00:53:32.732Z,9.50
2024-02-06T00:56:01.172Z,9.50
2024-02-06T00:58:29.652Z,9.50
2024-02-06T01:00:58.295Z,9.50
2024-02-06T01:03:28.259Z,9.50
2024-02-06T01:05:56.721Z,9.50
2024-02-06T01:08:25.278Z,9.50
2024-02-06T01:10:53.766Z,9.50
2024-02-06T01:13:22.246Z,9.50
2024-02-06T01:15:50.813Z,9.50
2024-02-06T01:18:19.291Z,9.50
2024-02-06T01:20:49.107Z,9.50
2024-02-06T01:23:17.585Z,9.50
2024-02-06T01:25:46.161Z,9.50
2024-02-06T01:28:14.704Z,9.50
2024-02-06T01:30:43.405Z,9.40
2024-02-06T01:33:12.003Z,9.50
2024-02-06T01:35:42.667Z,9.40
2024-02-06T01:38:14.158Z,9.40
2024-02-06T01:40:43.780Z,9.40
2024-02-06T01:43:13.043Z,9.40
2024-02-06T01:45:45.099Z,9.40
2024-02-06T01:48:16.273Z,9.40
2024-02-06T01:50:46.634Z,9.30
2024-02-06T01:53:18.373Z,9.30
2024-02-06T01:55:47.280Z,9.30
2024-02-06T01:58:16.479Z,9.30
2024-02-06T02:00:46.536Z,9.30
2024-02-06T02:03:15.746Z,9.30
2024-02-06T02:05:46.633Z,9.30
2024-02-06T02:08:17.864Z,9.30
2024-02-06T02:10:46.885Z,9.30
2024-02-06T02:13:15.571Z,9.30
2024-02-06T02:15:44.133Z,9.30
2024-02-06T02:18:12.753Z,9.30
2024-02-06T02:20:41.241Z,9.30
2024-02-06T02:23:19.606Z,9.30
2024-02-06T02:25:54.225Z,9.40
2024-02-06T02:28:26.304Z,9.30
2024-02-06T02:30:55.202Z,9.40
2024-02-06T02:33:23.775Z,9.30
2024-02-06T02:35:52.293Z,9.40
2024-02-06T02:38:22.265Z,9.40
2024-02-06T02:40:50.976Z,9.40
2024-02-06T02:43:20.025Z,9.40
2024-02-06T02:45:49.172Z,9.40
2024-02-06T02:48:17.846Z,9.40
2024-02-06T02:50:46.480Z,9.40
2024-02-06T02:53:15.238Z,9.40
2024-02-06T02:55:45.343Z,9.40
2024-02-06T02:58:14.048Z,9.50
2024-02-06T03:00:42.738Z,9.50
2024-02-06T03:03:11.272Z,9.50
2024-02-06T03:05:40.082Z,9.50
2024-02-06T03:08:08.739Z,9.50
2024-02-06T03:10:37.322Z,9.50
2024-02-06T03:13:07.375Z,9.50
2024-02-06T03:15:35.953Z,9.50
2024-02-06T03:18:04.846Z,9.50
2024-02-06T03:20:33.859Z,9.40
2024-02-06T03:23:02.314Z,9.50
2024-02-06T03:25:30.797Z,9.50
2024-02-06T03:27:59.293Z,9.40
2024-02-06T03:30:29.148Z,9.40
2024-02-06T03:32:57.667Z,9.40
2024-02-06T03:35:26.320Z,9.40
2024-02-06T03:37:54.901Z,9.40
2024-02-06T03:40:23.363Z,9.50
2024-02-06T03:42:52.067Z,9.50
2024-02-06T03:45:20.637Z,9.50
2024-02-06T03:47:52.837Z,9.50
2024-02-06T03:50:21.536Z,9.50
2024-02-06T03:52:49.955Z,9.50
2024-02-06T03:55:18.682Z,9.50
2024-02-06T03:57:47.187Z,9.50
2024-02-06T04:00:16.621Z,9.50
2024-02-06T04:02:45.796Z,9.50
2024-02-06T04:05:15.882Z,9.50
2024-02-06T04:07:44.368Z,9.40
2024-02-06T04:10:12.956Z,9.50
2024-02-06T04:12:41.564Z,9.50
2024-02-06T04:15:10.780Z,9.50
2024-02-06T04:17:39.425Z,9.50
2024-02-06T04:20:09.512Z,9.50
2024-02-06T04:22:39.550Z,9.50
2024-02-06T04:25:09.052Z,9.50
2024-02-06T04:27:37.541Z,9.50
2024-02-06T04:30:07.006Z,9.50
2024-02-06T04:32:35.643Z,9.50
2024-02-06T04:35:04.437Z,9.60
2024-02-06T04:37:33.053Z,9.50
2024-02-06T04:40:03.021Z,9.60
2024-02-06T04:42:31.599Z,9.60
2024-02-06T04:45:00.032Z,9.60
2024-02-06T04:47:28.718Z,9.60
2024-02-06T04:49:59.705Z,9.60
2024-02-06T04:52:31.199Z,9.60
2024-02-06T04:55:00.442Z,9.60
2024-02-06T04:57:30.368Z,9.60
2024-02-06T04:59:59.128Z,9.60
2024-02-06T05:02:27.580Z,9.60
2024-02-06T05:04:56.180Z,9.60
2024-02-06T05:07:24.797Z,9.60
2024-02-06T05:09:53.315Z,9.60
2024-02-06T05:12:22.118Z,9.60
2024-02-06T05:14:51.994Z,9.60
2024-02-06T05:17:20.053Z,9.60
2024-02-06T05:19:50.003Z,9.60
2024-02-06T05:22:18.711Z,9.60
2024-02-06T05:24:47.504Z,9.60
2024-02-06T05:27:16.066Z,9.60
2024-02-06T05:29:44.601Z,9.50
2024-02-06T05:32:14.434Z,9.60
2024-02-06T05:34:43.137Z,9.60
2024-02-06T05:37:11.684Z,9.50
2024-02-06T05:39:41.892Z,9.60
2024-02-06T05:42:10.548Z,9.50
2024-02-06T05:44:39.489Z,9.50
2024-02-06T05:47:08.781Z,9.50
2024-02-06T05:49:38.797Z,9.60
2024-02-06T05:52:07.858Z,9.60
2024-02-06T05:54:36.537Z,9.60
2024-02-06T05:57:05.416Z,9.60
2024-02-06T05:59:33.914Z,9.60
2024-02-06T06:02:02.530Z,9.70
2024-02-06T06:04:31.669Z,9.70
2024-02-06T06:07:01.838Z,9.70
2024-02-06T06:09:30.629Z,9.70
2024-02-06T06:11:59.158Z,9.70
2024-02-06T06:14:27.656Z,9.70
2024-02-06T06:16:56.148Z,9.70
2024-02-06T06:19:24.797Z,9.80
2024-02-06T06:21:53.326Z,9.80
2024-02-06T06:24:23.355Z,9.80
2024-02-06T06:26:51.906Z,9.70
2024-02-06T06:29:20.420Z,9.80
2024-02-06T06:31:48.877Z,9.80
2024-02-06T06:34:17.576Z,9.80
2024-02-06T06:36:46.157Z,9.80
2024-02-06T06:39:14.699Z,9.90
2024-02-06T06:41:47.031Z,9.90
2024-02-06T06:44:15.713Z,9.90
2024-02-06T06:46:47.383Z,9.90
2024-02-06T06:49:16.094Z,9.90
2024-02-06T06:51:45.186Z,9.80
2024-02-06T06:54:13.766Z,9.80
2024-02-06T06:56:42.325Z,9.80
2024-02-06T06:59:12.218Z,9.90
2024-02-06T07:01:41.038Z,9.90
2024-02-06T07:04:10.613Z,9.90
2024-02-06T07:06:39.865Z,9.90
2024-02-06T07:09:08.647Z,9.90
2024-02-06T07:11:37.203Z,9.90
2024-02-06T07:14:05.699Z,9.90
2024-02-06T07:16:35.597Z,9.90
2024-02-06T07:19:04.408Z,9.90
2024-02-06T07:21:33.058Z,9.90
2024-02-06T07:24:02.189Z,9.90
2024-02-06T07:26:30.775Z,10.00
2024-02-06T07:28:59.484Z,10.00
2024-02-06T07:31:28.046Z,10.00
2024-02-06T07:33:58.222Z,10.00
2024-02-06T07:36:30.527Z,10.00
2024-02-06T07:38:58.990Z,10.00
2024-02-06T07:41:27.480Z,10.00
2024-02-06T07:43:56.030Z,10.00
2024-02-06T07:46:24.634Z,10.00
2024-02-06T07:48:57.226Z,10.00
2024-02-06T07:51:27.354Z,10.00
2024-02-06T07:53:57.502Z,10.00
2024-02-06T07:56:28.395Z,10.00
2024-02-06T07:58:59.486Z,10.10
2024-02-06T08:01:28.437Z,10.10
2024-02-06T08:03:57.887Z,10.20
2024-02-06T08:06:28.244Z,10.20
2024-02-06T08:08:56.809Z,10.30
2024-02-06T08:11:25.447Z,10.30
2024-02-06T08:13:54.345Z,10.30
2024-02-06T08:16:22.980Z,10.30
2024-02-06T08:18:54.152Z,10.40
2024-02-06T08:21:22.778Z,10.40
2024-02-06T08:23:56.077Z,10.30
2024-02-06T08:26:24.686Z,10.30
2024-02-06T08:28:53.364Z,10.30
2024-02-06T08:31:23.559Z,10.30
2024-02-06T08:33:52.568Z,10.30
2024-02-06T08:36:21.301Z,10.40
2024-02-06T08:38:50.031Z,10.40
2024-02-06T08:41:20.725Z,10.50
2024-02-06T08:43:53.082Z,10.60
2024-02-06T08:46:25.286Z,10.70
2024-02-06T08:48:55.446Z,10.70
2024-02-06T08:51:23.947Z,10.80
2024-02-06T08:53:52.536Z,10.90
2024-02-06T08:56:22.450Z,10.90
2024-02-06T08:58:51.118Z,11.00
2024-02-06T09:01:19.770Z,11.00
2024-02-06T09:03:48.711Z,11.00
2024-02-06T09:06:17.333Z,11.10
2024-02-06T09:08:45.978Z,11.20
2024-02-06T09:11:14.607Z,11.20
2024-02-06T09:13:44.704Z,11.20
2024-02-06T09:16:13.287Z,11.40
2024-02-06T09:18:42.045Z,11.60
2024-02-06T09:21:11.602Z,11.60
2024-02-06T09:23:40.349Z,11.60
2024-02-06T09:26:11.880Z,11.50
2024-02-06T09:28:40.644Z,11.60
2024-02-06T09:31:11.265Z,11.70
2024-02-06T09:33:40.090Z,11.60
2024-02-06T09:36:10.083Z,11.70
2024-02-06T09:38:38.757Z,11.80
2024-02-06T09:41:12.099Z,11.70
2024-02-06T09:43:42.606Z,11.60
2024-02-06T09:46:13.419Z,11.50
2024-02-06T09:48:42.037Z,11.70
2024-02-06T09:51:13.157Z,11.60
2024-02-06T09:53:42.710Z,11.40
2024-02-06T09:56:12.604Z,11.40
2024-02-06T09:58:42.128Z,11.40
2024-02-06T10:01:14.316Z,11.30
2024-02-06T10:03:47.291Z,11.30
2024-02-06T10:06:21.133Z,11.30
2024-02-06T10:08:50.675Z,11.20
2024-02-06T10:11:20.402Z,11.30
2024-02-06T10:13:49.151Z,11.30
2024-02-06T10:16:19.341Z,11.30
2024-02-06T10:18:58.589Z,11.50
2024-02-06T10:21:29.451Z,11.60
2024-02-06T10:24:03.185Z,11.70
2024-02-06T10:26:31.734Z,11.70
2024-02-06T10:29:07.388Z,12.20
2024-02-06T10:31:38.728Z,12.10
2024-02-06T10:34:12.646Z,12.00
2024-02-06T10:36:42.105Z,12.00
2024-02-06T10:39:12.482Z,12.00
2024-02-06T10:42:00.811Z,11.90
2024-02-06T10:44:30.487Z,11.80
2024-02-06T10:47:01.598Z,11.80
2024-02-06T10:49:30.587Z,11.80
2024-02-06T10:52:07.416Z,11.70
2024-02-06T10:54:36.767Z,11.60
2024-02-06T10:57:08.385Z,11.50
2024-02-06T10:59:47.249Z,11.50
2024-02-06T11:02:25.404Z,11.40
2024-02-06T11:05:06.673Z,11.40
2024-02-06T11:07:41.073Z,11.30
2024-02-06T11:10:12.707Z,11.40
2024-02-06T11:12:41.944Z,11.40
2024-02-06T11:15:12.311Z,11.40
2024-02-06T11:17:44.526Z,11.50
2024-02-06T11:20:15.334Z,11.40
2024-02-06T11:22:46.465Z,11.40
2024-02-06T11:25:18.372Z,11.40
2024-02-06T11:27:48.746Z,11.40
2024-02-06T11:30:18.312Z,11.40
2024-02-06T11:32:48.284Z,11.40
2024-02-06T11:35:27.581Z,11.40
2024-02-06T11:37:56.833Z,11.40
2024-02-06T11:40:27.288Z,11.40
2024-02-06T11:43:06.920Z,11.30
2024-02-06T11:45:37.453Z,11.30
2024-02-06T11:48:09.820Z,11.30
2024-02-06T11:50:45.390Z,11.30
2024-02-06T11:53:16.383Z,11.40
2024-02-06T11:55:46.188Z,11.40
2024-02-06T11:58:16.072Z,11.30
2024-02-06T12:00:44.832Z,11.30
2024-02-06T12:03:16.217Z,11.30
2024-02-06T12:05:47.211Z,11.30
2024-02-06T12:08:22.442Z,11.20
2024-02-06T12:10:52.304Z,11.30
2024-02-06T12:13:23.249Z,11.30
2024-02-06T12:15:55.519Z,11.30
2024-02-06T12:18:26.491Z,11.20
2024-02-06T12:20:55.097Z,11.20
2024-02-06T12:23:24.443Z,11.30
2024-02-06T12:25:53.084Z,11.30
2024-02-06T12:28:21.985Z,11.30
2024-02-06T12:30:51.667Z,11.40
2024-02-06T12:33:22.441Z,11.40
2024-02-06T12:35:56.839Z,11.30
2024-02-06T12:38:25.406Z,11.30
2024-02-06T12:40:54.357Z,11.30
2024-02-06T12:43:23.255Z,11.30
2024-02-06T12:45:51.956Z,11.30
2024-02-06T12:48:20.902Z,11.20
2024-02-06T12:50:52.269Z,11.20
2024-02-06T12:53:26.352Z,11.10
2024-02-06T12:55:55.211Z,11.10
2024-02-06T12:58:24.002Z,11.20
2024-02-06T13:00:56.754Z,11.20
2024-02-06T13:03:25.603Z,11.30
2024-02-06T13:05:59.835Z,11.40
2024-02-06T13:08:31.732Z,11.40
2024-02-06T13:11:13.329Z,11.40
2024-02-06T13:13:42.668Z,11.30
2024-02-06T13:16:14.998Z,11.20
2024-02-06T13:18:44.043Z,11.20
2024-02-06T13:21:13.982Z,11.10
2024-02-06T13:23:42.561Z,11.00
2024-02-06T13:26:11.214Z,11.00
2024-02-06T13:28:40.776Z,11.00
2024-02-06T13:31:11.028Z,11.00
2024-02-06T13:33:42.279Z,11.00
2024-02-06T13:36:11.256Z,10.90
2024-02-06T13:38:41.413Z,10.90
2024-02-06T13:41:09.904Z,10.90
2024-02-06T13:43:39.478Z,10.80
2024-02-06T13:46:07.965Z,10.80
2024-02-06T13:48:36.616Z,10.80
2024-02-06T13:51:05.281Z,10.90
2024-02-06T13:53:35.030Z,10.90
2024-02-06T13:56:06.305Z,10.90
2024-02-06T13:58:35.957Z,10.90
2024-02-06T14:01:04.589Z,10.80
2024-02-06T14:03:33.653Z,10.90
2024-02-06T14:06:05.499Z,11.00
2024-02-06T14:08:34.153Z,11.10
2024-02-06T14:11:04.130Z,11.10
2024-02-06T14:13:32.779Z,11.10
2024-02-06T14:16:02.429Z,11.10
2024-02-06T14:18:31.270Z,11.00
2024-02-06T14:20:59.951Z,11.00
2024-02-06T14:23:28.594Z,11.10
2024-02-06T14:25:57.212Z,11.10
2024-02-06T14:28:27.194Z,11.10
2024-02-06T14:30:55.820Z,11.10
2024-02-06T14:33:24.560Z,11.10
2024-02-06T14:35:53.461Z,11.00
2024-02-06T14:38:22.177Z,11.10
2024-02-06T14:40:52.136Z,11.10
2024-02-06T14:43:21.224Z,11.10
2024-02-06T14:45:51.242Z,11.20
2024-02-06T14:48:20.118Z,11.20
2024-02-06T14:50:48.736Z,11.20
2024-02-06T14:53:17.340Z,11.20
2024-02-06T14:55:46.121Z,11.20
2024-02-06T14:58:14.793Z,11.20
2024-02-06T15:00:43.408Z,11.10
2024-02-06T15:03:13.386Z,11.10
2024-02-06T15:05:50.818Z,11.00
2024-02-06T15:08:40.709Z,11.00
2024-02-06T15:11:29.749Z,11.10
2024-02-06T15:14:18.570Z,11.00
2024-02-06T15:17:05.752Z,11.00
2024-02-06T15:19:54.469Z,10.90
2024-02-06T15:22:23.300Z,10.90
2024-02-06T15:24:52.695Z,10.80
2024-02-06T15:27:21.341Z,10.70
2024-02-06T15:29:49.890Z,10.70
2024-02-06T15:32:18.602Z,10.70
2024-02-06T15:34:47.200Z,10.60
2024-02-06T15:37:17.252Z,10.60
2024-02-06T15:39:52.588Z,10.50
2024-02-06T15:42:21.542Z,10.50
2024-02-06T15:44:50.308Z,10.50
2024-02-06T15:47:18.891Z,10.40
2024-02-06T15:49:47.644Z,10.30
2024-02-06T15:52:18.134Z,10.30
2024-02-06T15:54:46.678Z,10.10
2024-02-06T15:57:15.229Z,10.00
2024-02-06T15:59:45.112Z,9.90
2024-02-06T16:02:15.814Z,9.90
2024-02-06T16:04:44.767Z,9.80
2024-02-06T16:07:13.434Z,9.80
2024-02-06T16:09:43.468Z,9.80
2024-02-06T16:12:12.317Z,9.70
2024-02-06T16:14:40.904Z,9.70
2024-02-06T16:17:09.423Z,9.70
2024-02-06T16:19:41.625Z,9.70
2024-02-06T16:22:10.621Z,9.70
2024-02-06T16:24:39.227Z,9.70
2024-02-06T16:27:09.268Z,9.70
2024-02-06T16:29:37.861Z,9.70
2024-02-06T16:32:06.603Z,9.70
2024-02-06T16:34:39.672Z,9.80
2024-02-06T16:37:10.897Z,9.80
2024-02-06T16:39:39.727Z,9.80
2024-02-06T16:42:10.252Z,9.80
2024-02-06T16:44:38.756Z,9.90
2024-02-06T16:47:08.692Z,9.90
2024-02-06T16:49:37.249Z,10.00
2024-02-06T16:52:06.554Z,10.00
2024-02-06T16:54:36.182Z,10.00
2024-02-06T16:57:05.244Z,10.00
2024-02-06T16:59:35.593Z,10.00
2024-02-06T17:02:04.958Z,10.00
2024-02-06T17:04:33.710Z,10.00
2024-02-06T17:07:02.433Z,9.90
2024-02-06T17:09:31.181Z,9.90
2024-02-06T17:11:59.847Z,9.80
2024-02-06T17:14:28.349Z,9.80
2024-02-06T17:16:58.233Z,9.80
2024-02-06T17:19:26.900Z,9.80
2024-02-06T17:21:55.512Z,9.70
2024-02-06T17:24:23.952Z,9.70
2024-02-06T17:26:52.547Z,9.70
2024-02-06T17:29:21.113Z,9.60
2024-02-06T17:31:49.938Z,9.60
2024-02-06T17:34:22.252Z,9.60
2024-02-06T17:36:50.927Z,9.70
2024-02-06T17:39:20.456Z,9.70
2024-02-06T17:41:48.962Z,9.60
2024-02-06T17:44:17.507Z,9.60
2024-02-06T17:46:46.602Z,9.60
2024-02-06T17:49:15.753Z,9.60
2024-02-06T17:51:45.618Z,9.60
2024-02-06T17:54:14.143Z,9.60
2024-02-06T17:56:43.592Z,9.60
2024-02-06T17:59:15.652Z,9.60
2024-02-06T18:01:46.734Z,9.60
2024-02-06T18:04:15.458Z,9.60
2024-02-06T18:06:45.461Z,9.60
2024-02-06T18:09:15.724Z,9.60
2024-02-06T18:11:44.303Z,9.60
2024-02-06T18:14:13.132Z,9.60
2024-02-06T18:16:57.528Z,9.60
2024-02-06T18:19:26.906Z,9.60
2024-02-06T18:21:57.475Z,9.70
2024-02-06T18:24:26.090Z,9.70
2024-02-06T18:26:54.634Z,9.60
2024-02-06T18:29:23.461Z,9.60
2024-02-06T18:31:52.855Z,9.60
2024-02-06T18:34:22.671Z,9.60
2024-02-06T18:36:52.008Z,9.70
2024-02-06T18:39:22.910Z,9.70
2024-02-06T18:41:52.681Z,9.70
2024-02-06T18:44:21.544Z,9.70
2024-02-06T18:46:50.166Z,9.70
2024-02-06T18:49:18.827Z,9.70
2024-02-06T18:51:47.420Z,9.70
2024-02-06T18:54:16.230Z,9.70
2024-02-06T18:56:46.940Z,9.70
2024-02-06T18:59:15.401Z,9.70
2024-02-06T19:01:43.996Z,9.70
2024-02-06T19:04:12.777Z,9.70
2024-02-06T19:06:41.741Z,9.70
2024-02-06T19:09:11.051Z,9.70
2024-02-06T19:11:39.769Z,9.70
2024-02-06T19:14:09.956Z,9.70
2024-02-06T19:16:42.241Z,9.70
2024-02-06T19:19:13.088Z,9.70
2024-02-06T19:21:45.179Z,9.70
2024-02-06T19:24:14.478Z,9.70
2024-02-06T19:26:45.229Z,9.70
2024-02-06T19:29:15.239Z,9.70
2024-02-06T19:31:43.795Z,9.70
2024-02-06T19:34:14.023Z,9.70
2024-02-06T19:36:43.017Z,9.80
2024-02-06T19:39:11.668Z,9.80
2024-02-06T19:41:41.692Z,9.80
2024-02-06T19:44:11.176Z,9.80
2024-02-06T19:46:41.269Z,9.80
2024-02-06T19:49:10.197Z,9.80
2024-02-06T19:51:39.186Z,9.80
2024-02-06T19:54:08.007Z,9.70
2024-02-06T19:56:39.670Z,9.70
2024-02-06T19:59:08.949Z,9.50
2024-02-06T20:01:37.694Z,9.20
2024-02-06T20:04:07.699Z,9.00
2024-02-06T20:06:39.013Z,8.70
2024-02-06T20:09:07.882Z,8.50
2024-02-06T20:11:36.818Z,8.30
2024-02-06T20:14:05.383Z,8.10
2024-02-06T20:16:34.334Z,7.80
2024-02-06T20:19:03.009Z,7.60
2024-02-06T20:21:32.996Z,7.40
2024-02-06T20:24:02.996Z,7.30
2024-02-06T20:26:31.558Z,7.10
2024-02-06T20:29:00.237Z,7.00
2024-02-06T20:31:29.138Z,7.00
2024-02-06T20:33:57.886Z,6.80
2024-02-06T20:36:26.561Z,6.80
2024-02-06T20:38:56.488Z,6.70
2024-02-06T20:41:25.031Z,6.60
2024-02-06T20:43:53.802Z,6.40
2024-02-06T20:46:23.151Z,6.20
2024-02-06T20:48:51.790Z,5.80
2024-02-06T20:51:21.128Z,5.70
2024-02-06T20:53:50.937Z,5.60
2024-02-06T20:56:20.973Z,5.50
2024-02-06T20:58:49.536Z,5.40
2024-02-06T21:01:18.285Z,5.30
2024-02-06T21:03:48.086Z,5.20
2024-02-06T21:06:16.737Z,5.20
2024-02-06T21:08:45.299Z,5.10
2024-02-06T21:11:16.065Z,5.10
2024-02-06T21:13:47.362Z,5.30
2024-02-06T21:16:16.072Z,5.20
2024-02-06T21:18:44.924Z,5.10
2024-02-06T21:21:14.320Z,5.10
2024-02-06T21:23:42.950Z,5.10
2024-02-06T21:26:18.278Z,5.10
2024-02-06T21:28:48.352Z,5.10
2024-02-06T21:31:17.078Z,5.10
2024-02-06T21:33:46.860Z,5.10
2024-02-06T21:36:15.425Z,5.10
2024-02-06T21:38:43.966Z,5.10
2024-02-06T21:41:12.979Z,5.10
2024-02-06T21:43:41.726Z,5.10
2024-02-06T21:46:12.700Z,5.10
2024-02-06T21:48:41.328Z,5.20
2024-02-06T21:51:09.909Z,5.20
2024-02-06T21:53:38.645Z,5.20
2024-02-06T21:56:15.650Z,5.20
2024-02-06T21:58:50.472Z,5.20
2024-02-06T22:01:20.553Z,5.10
2024-02-06T22:03:49.216Z,5.10
2024-02-06T22:06:18.576Z,5.00
2024-02-06T22:08:47.523Z,5.00
2024-02-06T22:11:16.109Z,4.90
2024-02-06T22:13:44.797Z,4.90
2024-02-06T22:16:13.706Z,4.80
2024-02-06T22:18:43.691Z,4.90
2024-02-06T22:21:12.742Z,4.80
2024-02-06T22:23:41.327Z,4.90
2024-02-06T22:26:09.993Z,4.90
2024-02-06T22:28:39.047Z,4.80
2024-02-06T22:31:09.788Z,4.80
2024-02-06T22:33:39.361Z,4.80
2024-02-06T22:36:10.203Z,4.80
2024-02-06T22:38:39.021Z,4.80
2024-02-06T22:41:08.490Z,4.90
2024-02-06T22:43:37.066Z,4.90
2024-02-06T22:46:06.340Z,5.00
2024-02-06T22:48:35.046Z,4.90
2024-02-06T22:51:03.577Z,4.90
2024-02-06T22:53:33.411Z,4.90
2024-02-06T22:56:01.980Z,4.80
2024-02-06T22:58:30.525Z,4.80
2024-02-06T23:00:59.110Z,4.80
2024-02-06T23:03:27.761Z,4.70
2024-02-06T23:05:56.300Z,4.70
2024-02-06T23:08:24.744Z,4.70
2024-02-06T23:10:54.621Z,4.70
2024-02-06T23:13:24.204Z,4.60
2024-02-06T23:15:52.770Z,4.70
2024-02-06T23:18:21.369Z,4.70
2024-02-06T23:20:50.095Z,4.70
2024-02-06T23:23:18.895Z,4.70
2024-02-06T23:25:47.598Z,4.70
2024-02-06T23:28:17.451Z,4.60
2024-02-06T23:30:45.990Z,4.70
2024-02-06T23:33:14.488Z,4.60
2024-02-06T23:35:43.182Z,4.60
2024-02-06T23:38:11.878Z,4.70
2024-02-06T23:40:40.421Z,4.60
2024-02-06T23:43:09.080Z,4.60
2024-02-06T23:45:39.221Z,4.70
2024-02-06T23:48:09.203Z,4.60
2024-02-06T23:50:37.973Z,4.60
2024-02-06T23:53:07.240Z,4.60
2024-02-06T23:55:35.733Z,4.70
2024-02-06T23:58:04.328Z,4.70
